Time;durP1;ratioP1;P1;durP2;ratioP2;P2;SDS_P1;SDS_P2;PMS_P1;PMS_P2;Temp;Humidity;BMP_temperature;BMP_pressure;BME280_temperature;BME280_humidity;BME280_pressure;Samples;Min_cycle;Max_cycle;Signal;HPM_P1;HPM_P2
2021/03/21 00:00:28;;;;;;;10.85;5.20;;;;;;;1.27;61.11;100487.16;1744723;82;21392;-61
2021/03/21 00:02:55;;;;;;;12.07;5.40;;;;;;;1.27;61.15;100486.30;1709131;84;21191;-61
2021/03/21 00:05:23;;;;;;;8.88;4.67;;;;;;;1.25;61.14;100486.94;1744714;82;21138;-62
2021/03/21 00:08:06;;;;;;;9.50;4.70;;;;;;;1.23;61.25;100487.56;1744758;82;21127;-62
2021/03/21 00:10:34;;;;;;;11.78;5.72;;;;;;;1.19;61.38;100487.48;1705596;84;21183;-63
2021/03/21 00:13:01;;;;;;;7.37;4.35;;;;;;;1.15;61.41;100482.84;1744714;82;21155;-61
2021/03/21 00:15:30;;;;;;;12.15;5.62;;;;;;;1.14;61.53;100481.14;1744615;81;21151;-62
2021/03/21 00:17:58;;;;;;;10.00;4.95;;;;;;;1.13;61.60;100483.97;1744751;82;21869;-63
2021/03/21 00:20:30;;;;;;;11.88;5.50;;;;;;;1.12;61.67;100479.56;1709231;84;21547;-64
2021/03/21 00:22:58;;;;;;;10.68;5.20;;;;;;;1.13;61.73;100478.08;1743755;82;21270;-62
2021/03/21 00:25:27;;;;;;;11.45;5.28;;;;;;;1.15;61.79;100477.95;1744695;81;21159;-62
2021/03/21 00:27:55;;;;;;;10.90;5.00;;;;;;;1.16;61.76;100467.52;1709248;84;21869;-62
2021/03/21 00:30:30;;;;;;;10.32;5.25;;;;;;;1.15;61.76;100471.20;1744787;82;21396;-62
2021/03/21 00:32:57;;;;;;;9.10;4.70;;;;;;;1.15;61.79;100460.41;1709111;84;21392;-62
2021/03/21 00:35:25;;;;;;;13.13;5.30;;;;;;;1.16;61.74;100452.17;1744608;82;21876;-62
2021/03/21 00:37:57;;;;;;;13.08;5.17;;;;;;;1.20;61.73;100456.80;1744642;82;21281;-63
2021/03/21 00:40:25;;;;;;;10.25;5.10;;;;;;;1.19;61.65;100457.80;1708870;83;21163;-63
2021/03/21 00:42:52;;;;;;;8.38;4.33;;;;;;;1.20;61.75;100460.85;1739406;82;21204;-62
2021/03/21 00:45:22;;;;;;;8.48;4.40;;;;;;;1.16;61.69;100452.67;1739435;82;21286;-62
2021/03/21 00:47:49;;;;;;;9.33;4.60;;;;;;;1.13;61.70;100459.19;1739375;82;21417;-62
2021/03/21 00:50:23;;;;;;;8.55;4.67;;;;;;;1.10;61.71;100455.42;1739293;82;21780;-63
2021/03/21 00:52:50;;;;;;;9.63;4.90;;;;;;;1.10;61.83;100458.11;1738701;82;21183;-62
2021/03/21 00:55:18;;;;;;;11.08;5.12;;;;;;;1.09;61.78;100452.85;1739397;82;21164;-61
2021/03/21 00:57:45;;;;;;;9.63;4.33;;;;;;;1.09;61.93;100456.41;1739291;82;22208;-62
2021/03/21 01:00:35;;;;;;;10.63;5.40;;;;;;;1.11;61.94;100457.62;1739370;82;21208;-62
2021/03/21 01:03:03;;;;;;;7.33;4.45;;;;;;;1.08;61.89;100457.40;1739358;82;21428;-62
2021/03/21 01:05:40;;;;;;;10.25;5.25;;;;;;;1.09;61.84;100463.64;1739425;82;21426;-62
2021/03/21 01:08:24;;;;;;;8.38;4.30;;;;;;;1.07;61.77;100461.08;1739322;82;21258;-62
2021/03/21 01:11:01;;;;;;;8.53;4.53;;;;;;;1.06;61.84;100458.52;1730848;82;21211;-61
2021/03/21 01:13:29;;;;;;;11.03;5.05;;;;;;;1.01;61.80;100454.03;1739438;82;21373;-62
2021/03/21 01:15:57;;;;;;;8.65;4.83;;;;;;;0.95;61.95;100454.07;1739281;82;21203;-61
2021/03/21 01:18:28;;;;;;;7.05;4.12;;;;;;;0.95;62.16;100450.87;1739305;82;21152;-62
2021/03/21 01:20:55;;;;;;;9.13;3.98;;;;;;;0.97;62.12;100447.19;1739274;82;21395;-62
2021/03/21 01:23:23;;;;;;;10.00;4.75;;;;;;;0.91;62.06;100449.44;1739429;82;21429;-62
2021/03/21 01:25:50;;;;;;;9.08;4.22;;;;;;;0.85;62.19;100447.78;1739279;82;21144;-62
2021/03/21 01:28:34;;;;;;;7.50;4.28;;;;;;;0.81;62.30;100447.19;1739446;82;21199;-62
2021/03/21 01:31:05;;;;;;;7.80;4.00;;;;;;;0.80;62.45;100449.53;1739329;82;21321;-63
2021/03/21 01:33:32;;;;;;;9.35;4.72;;;;;;;0.78;62.46;100452.00;1739230;82;21202;-62
2021/03/21 01:36:01;;;;;;;8.15;4.10;;;;;;;0.76;62.59;100456.67;1735739;82;21190;-62
2021/03/21 01:38:28;;;;;;;9.95;4.72;;;;;;;0.73;62.51;100449.70;1739287;82;21459;-61
2021/03/21 01:41:00;;;;;;;8.75;4.58;;;;;;;0.69;62.63;100442.02;1739923;82;21163;-62
2021/03/21 01:43:35;;;;;;;8.73;4.37;;;;;;;0.68;62.76;100441.66;1709083;83;21186;-62
2021/03/21 01:46:03;;;;;;;6.47;3.60;;;;;;;0.69;62.75;100451.45;1744700;81;21507;-62
2021/03/21 01:48:54;;;;;;;10.53;5.15;;;;;;;0.64;62.81;100445.08;1709098;84;21296;-62
2021/03/21 01:51:34;;;;;;;8.18;4.10;;;;;;;0.59;62.89;100436.53;1744728;82;21882;-62
2021/03/21 01:54:05;;;;;;;6.83;3.95;;;;;;;0.57;63.02;100442.06;1715574;82;21170;-62
2021/03/21 01:56:33;;;;;;;8.40;4.12;;;;;;;0.59;62.99;100440.58;1744635;82;21272;-63
2021/03/21 01:59:11;;;;;;;8.70;4.20;;;;;;;0.56;63.00;100431.41;1709086;84;21420;-62
2021/03/21 02:01:38;;;;;;;8.83;4.10;;;;;;;0.55;63.12;100421.61;1744618;82;21150;-62
2021/03/21 02:04:06;;;;;;;7.90;4.62;;;;;;;0.55;63.16;100426.52;1744631;82;21162;-63
2021/03/21 02:06:51;;;;;;;8.40;4.20;;;;;;;0.57;63.29;100429.08;1744593;82;21146;-62
2021/03/21 02:09:47;;;;;;;9.08;4.05;;;;;;;0.58;63.26;100423.55;1744627;82;21276;-64
2021/03/21 02:12:52;;;;;;;8.60;4.42;;;;;;;0.60;63.19;100422.07;1744561;82;21149;-63
2021/03/21 02:15:47;;;;;;;7.85;3.95;;;;;;;0.63;63.10;100412.37;1709081;84;21285;-63
2021/03/21 02:18:38;;;;;;;8.55;4.58;;;;;;;0.64;62.97;100419.47;1744152;82;21404;-63
2021/03/21 02:21:34;;;;;;;9.03;3.95;;;;;;;0.66;62.91;100413.97;1744643;82;21269;-63
2021/03/21 02:24:20;;;;;;;8.30;4.17;;;;;;;0.63;62.80;100413.22;1744476;82;21869;-62
2021/03/21 02:27:14;;;;;;;9.00;4.72;;;;;;;0.61;62.83;100414.34;1744519;82;21320;-62
2021/03/21 02:30:06;;;;;;;7.65;3.95;;;;;;;0.61;62.82;100415.69;1744611;81;21438;-63
2021/03/21 02:33:03;;;;;;;13.32;5.55;;;;;;;0.60;62.79;100412.14;1744581;82;21198;-62
2021/03/21 02:35:44;;;;;;;10.80;4.75;;;;;;;0.54;62.74;100413.17;1709005;84;21206;-64
2021/03/21 02:38:33;;;;;;;9.50;5.30;;;;;;;0.50;62.85;100411.23;1744609;82;21414;-63
2021/03/21 02:41:06;;;;;;;9.28;4.62;;;;;;;0.47;63.01;100402.56;1744273;82;21857;-62
2021/03/21 02:43:41;;;;;;;8.25;4.15;;;;;;;0.45;63.11;100408.58;1739346;82;21390;-63
2021/03/21 02:46:20;;;;;;;8.43;4.05;;;;;;;0.42;63.15;100406.14;1739176;82;21541;-63
2021/03/21 02:48:57;;;;;;;8.53;3.98;;;;;;;0.39;63.12;100402.37;1739344;82;21413;-62
2021/03/21 02:51:31;;;;;;;9.13;4.15;;;;;;;0.33;63.19;100405.09;1739268;82;21175;-63
2021/03/21 02:54:05;;;;;;;7.87;4.22;;;;;;;0.30;63.31;100398.62;1739299;82;21266;-61
2021/03/21 02:56:32;;;;;;;9.43;4.78;;;;;;;0.30;63.47;100401.32;1739243;82;21191;-62
2021/03/21 02:59:12;;;;;;;13.28;5.28;;;;;;;0.35;63.52;100392.84;1739175;82;21860;-62
2021/03/21 03:01:50;;;;;;;11.50;5.15;;;;;;;0.39;63.58;100399.18;1739248;82;21359;-63
2021/03/21 03:04:35;;;;;;;11.10;5.25;;;;;;;0.39;63.59;100389.75;1739018;82;21149;-63
2021/03/21 03:07:39;;;;;;;13.15;5.28;;;;;;;0.31;63.51;100383.67;1739199;82;21151;-61
2021/03/21 03:10:15;;;;;;;11.40;5.60;;;;;;;0.26;63.74;100381.87;1739169;82;21864;-62
2021/03/21 03:12:50;;;;;;;13.03;6.53;;;;;;;0.21;63.84;100378.72;1739325;82;21163;-62
2021/03/21 03:15:19;;;;;;;11.30;5.55;;;;;;;0.16;64.01;100372.87;1739273;82;21415;-63
2021/03/21 03:18:17;;;;;;;21.90;8.30;;;;;;;0.11;64.19;100385.88;1739332;82;21140;-62
2021/03/21 03:20:51;;;;;;;17.25;7.00;;;;;;;0.09;64.34;100385.16;1739345;82;21144;-63
2021/03/21 03:23:39;;;;;;;16.15;6.87;;;;;;;0.10;64.51;100397.64;1739405;82;21457;-62
2021/03/21 03:26:12;;;;;;;13.93;6.72;;;;;;;0.06;64.40;100394.00;1706670;82;21426;-62
2021/03/21 03:29:08;;;;;;;11.50;5.62;;;;;;;0.05;64.49;100399.02;1739297;82;21946;-63
2021/03/21 03:31:50;;;;;;;12.63;5.97;;;;;;;0.02;64.53;100393.89;1739367;82;21144;-62
2021/03/21 03:34:17;;;;;;;12.80;5.90;;;;;;;-0.01;64.68;100390.94;1739366;82;21311;-63
2021/03/21 03:36:45;;;;;;;11.68;5.70;;;;;;;-0.06;64.66;100384.59;1739370;82;21403;-62
2021/03/21 03:39:13;;;;;;;13.62;5.83;;;;;;;-0.09;64.75;100390.73;1739435;82;21412;-62
2021/03/21 03:41:49;;;;;;;10.72;5.30;;;;;;;-0.14;64.89;100374.97;1740173;81;21344;-63
2021/03/21 03:44:36;;;;;;;9.63;5.00;;;;;;;-0.14;65.02;100375.45;1709220;82;21127;-63
2021/03/21 03:47:18;;;;;;;8.43;4.33;;;;;;;-0.15;65.09;100382.69;1744877;82;21516;-63
2021/03/21 03:50:19;;;;;;;10.53;4.70;;;;;;;-0.15;65.21;100375.09;1709236;84;21389;-63
2021/03/21 03:53:08;;;;;;;11.33;5.65;;;;;;;-0.15;65.30;100368.37;1744770;81;21465;-61
2021/03/21 03:56:08;;;;;;;14.07;5.55;;;;;;;-0.15;65.25;100367.02;1709316;84;21405;-62
2021/03/21 03:58:49;;;;;;;12.55;5.95;;;;;;;-0.15;65.26;100375.09;1744652;82;21416;-61
2021/03/21 04:01:37;;;;;;;12.80;5.70;;;;;;;-0.14;65.30;100378.16;1707698;84;21163;-62
2021/03/21 04:04:16;;;;;;;12.58;6.17;;;;;;;-0.14;65.29;100369.58;1744845;82;21307;-62
2021/03/21 04:07:01;;;;;;;12.35;5.80;;;;;;;-0.13;65.25;100369.09;1707361;84;21404;-62
2021/03/21 04:09:33;;;;;;;11.83;5.70;;;;;;;-0.13;65.17;100368.59;1717362;82;21402;-62
2021/03/21 04:12:18;;;;;;;12.50;6.35;;;;;;;-0.13;65.07;100367.74;1716474;82;21158;-61
2021/03/21 04:15:06;;;;;;;10.03;5.65;;;;;;;-0.15;64.97;100369.72;1709102;83;21313;-61
2021/03/21 04:17:50;;;;;;;10.15;5.33;;;;;;;-0.20;64.95;100362.02;1744556;82;21940;-63
2021/03/21 04:20:34;;;;;;;11.10;5.40;;;;;;;-0.21;64.93;100367.54;1744644;82;21439;-63
2021/03/21 04:23:13;;;;;;;12.25;5.03;;;;;;;-0.19;64.94;100364.23;1744631;82;21135;-63
2021/03/21 04:25:44;;;;;;;9.20;4.85;;;;;;;-0.22;64.95;100366.69;1709091;84;21146;-62
2021/03/21 04:28:37;;;;;;;12.40;5.80;;;;;;;-0.25;64.97;100362.05;1692448;82;21842;-63
2021/03/21 04:31:07;;;;;;;13.00;5.85;;;;;;;-0.25;65.01;100360.22;1708136;84;21903;-63
2021/03/21 04:33:40;;;;;;;12.53;6.20;;;;;;;-0.24;65.13;100359.72;1744622;82;21412;-60
2021/03/21 04:36:12;;;;;;;14.35;6.35;;;;;;;-0.21;65.27;100356.77;1744547;81;21377;-62
2021/03/21 04:39:04;;;;;;;15.13;7.90;;;;;;;-0.18;65.19;100355.16;1744572;82;21143;-63
2021/03/21 04:41:47;;;;;;;14.03;5.95;;;;;;;-0.21;65.13;100350.04;1715518;82;21344;-62
2021/03/21 04:44:24;;;;;;;12.88;6.50;;;;;;;-0.16;65.06;100347.31;1744227;82;21370;-61
2021/03/21 04:46:58;;;;;;;14.78;7.50;;;;;;;-0.16;64.97;100346.47;1744483;81;21201;-61
2021/03/21 04:49:26;;;;;;;17.52;7.70;;;;;;;-0.14;65.02;100352.57;1709133;84;21460;-62
2021/03/21 04:52:19;;;;;;;15.45;7.37;;;;;;;-0.12;65.05;100344.72;1744439;82;21257;-63
2021/03/21 04:54:47;;;;;;;16.48;7.35;;;;;;;-0.07;65.03;100342.49;1744510;82;21883;-61
2021/03/21 04:57:43;;;;;;;17.55;7.33;;;;;;;-0.02;65.01;100350.17;1744602;82;21854;-62
2021/03/21 05:00:32;;;;;;;9.63;5.17;;;;;;;0.04;64.87;100342.95;1708647;84;21942;-64
2021/03/21 05:03:22;;;;;;;9.83;5.15;;;;;;;0.05;64.53;100342.45;1744675;82;21193;-64
2021/03/21 05:05:58;;;;;;;13.58;5.20;;;;;;;0.08;64.20;100347.09;1743995;82;21209;-61
2021/03/21 05:08:31;;;;;;;9.78;4.50;;;;;;;0.10;63.82;100342.42;1744691;82;21159;-61
2021/03/21 05:11:00;;;;;;;10.23;4.67;;;;;;;0.09;63.57;100340.72;1709119;83;21322;-62
2021/03/21 05:13:55;;;;;;;11.35;4.97;;;;;;;0.12;63.45;100347.67;1744702;82;21413;-62
2021/03/21 05:16:40;;;;;;;9.00;4.87;;;;;;;0.15;63.39;100345.58;1744735;82;21213;-61
2021/03/21 05:19:33;;;;;;;8.85;4.47;;;;;;;0.19;62.87;100345.66;1744623;82;21150;-63
2021/03/21 05:22:21;;;;;;;7.95;4.67;;;;;;;0.19;62.42;100349.71;1744594;82;21861;-62
2021/03/21 05:25:10;;;;;;;10.32;4.53;;;;;;;0.06;62.33;100346.86;1744628;82;21159;-63
2021/03/21 05:27:43;;;;;;;9.38;5.45;;;;;;;-0.02;62.45;100351.03;1711776;81;21197;-63
2021/03/21 05:30:24;;;;;;;8.80;4.60;;;;;;;0.04;62.71;100345.64;1708903;84;21162;-63
2021/03/21 05:32:52;;;;;;;8.55;4.00;;;;;;;0.11;62.63;100350.01;1744438;82;21165;-63
2021/03/21 05:35:35;;;;;;;10.20;5.17;;;;;;;0.09;62.38;100347.94;1744659;82;21162;-62
2021/03/21 05:38:20;;;;;;;10.82;5.15;;;;;;;0.07;62.31;100345.87;1744466;82;21197;-63
2021/03/21 05:41:18;;;;;;;8.58;4.17;;;;;;;0.13;62.54;100349.38;1709107;84;21436;-63
2021/03/21 05:43:57;;;;;;;7.60;3.92;;;;;;;0.24;62.24;100343.43;1739894;82;21195;-62
2021/03/21 05:46:51;;;;;;;11.20;5.00;;;;;;;0.34;62.30;100347.52;1739197;82;21170;-62
2021/03/21 05:49:30;;;;;;;9.53;4.90;;;;;;;0.43;61.86;100345.37;1739126;82;21148;-63
2021/03/21 05:52:27;;;;;;;10.03;5.35;;;;;;;0.43;61.77;100339.98;1720562;82;21494;-62
2021/03/21 05:55:19;;;;;;;9.43;5.08;;;;;;;0.45;61.73;100350.13;1739406;82;21427;-63
2021/03/21 05:58:33;;;;;;;9.75;5.00;;;;;;;0.46;61.78;100356.38;1678888;85;21603;-65
2021/03/21 06:01:48;;;;;;;13.85;6.00;;;;;;;0.51;61.89;100359.03;1736183;82;21840;-62
2021/03/21 06:04:41;;;;;;;13.30;5.92;;;;;;;0.57;61.95;100346.85;1739206;82;21232;-63
2021/03/21 06:07:57;;;;;;;12.25;5.55;;;;;;;0.59;61.94;100348.42;1739149;82;21132;-62
2021/03/21 06:11:09;;;;;;;13.10;5.72;;;;;;;0.56;62.24;100346.49;1675335;85;21472;-63
2021/03/21 06:14:16;;;;;;;11.53;5.75;;;;;;;0.60;62.61;100347.93;1739342;82;21335;-63
2021/03/21 06:17:25;;;;;;;15.25;6.83;;;;;;;0.70;62.51;100339.91;1739285;82;21330;-62
2021/03/21 06:20:27;;;;;;;13.62;7.12;;;;;;;0.73;62.22;100333.75;1739291;82;21593;-62
2021/03/21 06:23:10;;;;;;;15.90;7.40;;;;;;;0.76;62.11;100333.97;1736265;82;21950;-63
2021/03/21 06:25:54;;;;;;;12.63;6.58;;;;;;;0.85;62.01;100333.16;1739207;82;21235;-62
2021/03/21 06:28:48;;;;;;;15.18;7.25;;;;;;;0.95;61.62;100328.14;1739326;82;21530;-63
2021/03/21 06:31:33;;;;;;;15.75;7.87;;;;;;;1.03;61.08;100323.90;1738610;82;21184;-64
2021/03/21 06:34:12;;;;;;;17.80;8.00;;;;;;;1.05;60.69;100322.77;1739525;82;21453;-62
2021/03/21 06:37:02;;;;;;;16.70;8.10;;;;;;;1.10;59.94;100325.05;1739211;82;21286;-63
2021/03/21 06:40:09;;;;;;;16.20;7.80;;;;;;;1.08;59.66;100329.73;1739344;82;21447;-62
2021/03/21 06:43:31;;;;;;;16.20;7.65;;;;;;;0.99;59.77;100307.14;1723685;82;21195;-61
2021/03/21 06:46:03;;;;;;;18.95;8.95;;;;;;;1.01;60.09;100303.81;1744536;82;21500;-62
2021/03/21 06:49:05;;;;;;;16.15;7.80;;;;;;;1.07;59.76;100295.66;1709128;84;21285;-62
2021/03/21 06:52:00;;;;;;;14.28;7.42;;;;;;;1.11;59.85;100293.03;1744715;82;21197;-62
2021/03/21 06:54:39;;;;;;;16.93;7.85;;;;;;;1.21;59.52;100296.59;1744665;82;21198;-61
2021/03/21 06:57:42;;;;;;;17.60;8.10;;;;;;;1.30;59.19;100296.25;1709090;84;21417;-64
2021/03/21 07:00:22;;;;;;;18.80;8.38;;;;;;;1.34;59.05;100282.86;1744651;82;21142;-61
2021/03/21 07:03:48;;;;;;;20.10;8.58;;;;;;;1.41;59.19;100283.50;1709107;83;21146;-62
2021/03/21 07:06:57;;;;;;;19.62;8.78;;;;;;;1.54;59.25;100281.36;1744619;82;21208;-63
2021/03/21 07:10:15;;;;;;;31.27;9.05;;;;;;;1.64;58.84;100276.45;1709135;84;21273;-64
2021/03/21 07:13:25;;;;;;;16.57;8.75;;;;;;;1.68;58.87;100277.37;1744702;82;21201;-63
2021/03/21 07:16:32;;;;;;;18.05;9.28;;;;;;;1.70;58.65;100267.28;1744743;82;21381;-62
2021/03/21 07:19:46;;;;;;;24.60;12.05;;;;;;;1.72;58.26;100265.78;1744681;82;21933;-62
2021/03/21 07:22:40;;;;;;;19.55;9.68;;;;;;;1.69;58.48;100259.32;1744306;82;21354;-63
2021/03/21 07:25:45;;;;;;;19.42;9.45;;;;;;;1.67;58.60;100254.06;1709101;83;21197;-64
2021/03/21 07:28:56;;;;;;;20.68;9.03;;;;;;;1.68;58.40;100249.52;1742738;82;21911;-64
2021/03/21 07:31:53;;;;;;;21.57;10.23;;;;;;;1.64;58.18;100238.15;1744666;82;21282;-63
2021/03/21 07:34:50;;;;;;;18.20;9.53;;;;;;;1.58;57.94;100233.33;1745031;82;21155;-62
2021/03/21 07:37:42;;;;;;;18.27;8.80;;;;;;;1.53;57.60;100242.36;1709118;84;21166;-62
2021/03/21 07:40:40;;;;;;;19.02;9.63;;;;;;;1.50;57.69;100227.30;1744680;82;21420;-63
2021/03/21 07:43:25;;;;;;;16.03;8.57;;;;;;;1.57;57.03;100228.92;1745219;82;21246;-63
2021/03/21 07:46:14;;;;;;;21.82;9.95;;;;;;;1.55;56.48;100239.02;1747465;82;21178;-63
2021/03/21 07:48:47;;;;;;;19.57;9.73;;;;;;;1.50;56.55;100217.00;1746822;81;21329;-62
2021/03/21 07:51:26;;;;;;;19.85;9.18;;;;;;;1.53;55.96;100212.66;1747635;82;21429;-63
2021/03/21 07:54:30;;;;;;;18.42;8.95;;;;;;;1.46;55.95;100211.03;1747816;81;21346;-62
2021/03/21 07:57:09;;;;;;;19.65;8.93;;;;;;;1.39;55.63;100201.81;1749276;80;21395;-61
2021/03/21 07:59:38;;;;;;;22.07;8.93;;;;;;;1.38;54.78;100204.16;1778327;80;21221;-62
2021/03/21 08:02:13;;;;;;;18.50;8.90;;;;;;;1.48;53.64;100193.34;1778257;80;21851;-63
2021/03/21 08:04:48;;;;;;;18.05;8.58;;;;;;;1.56;53.54;100202.92;1778327;80;21209;-63
2021/03/21 08:07:30;;;;;;;19.27;9.68;;;;;;;1.70;52.74;100197.06;1778015;80;21555;-63
2021/03/21 08:10:00;;;;;;;18.87;8.83;;;;;;;1.79;52.73;100196.68;1778351;80;21252;-63
2021/03/21 08:12:37;;;;;;;18.87;9.55;;;;;;;1.87;51.42;100169.28;1778090;80;21827;-63
2021/03/21 08:15:18;;;;;;;17.55;8.63;;;;;;;1.88;51.33;100177.73;1778247;80;21110;-63
2021/03/21 08:18:04;;;;;;;17.35;8.55;;;;;;;1.96;51.28;100156.77;1778452;80;21411;-64
2021/03/21 08:20:35;;;;;;;15.28;8.00;;;;;;;2.06;51.29;100158.08;1778501;80;21169;-63
2021/03/21 08:23:29;;;;;;;15.63;7.92;;;;;;;2.20;50.83;100155.73;1778445;80;21384;-63
2021/03/21 08:26:03;;;;;;;14.90;8.38;;;;;;;2.30;50.01;100150.27;1754485;80;21200;-62
2021/03/21 08:28:41;;;;;;;15.60;7.58;;;;;;;2.34;48.47;100160.28;1747511;81;21418;-64
2021/03/21 08:31:03;;;;;;;15.10;7.30;;;;;;;2.30;48.46;100147.57;1744844;82;21447;-63
2021/03/21 08:33:40;;;;;;;13.93;7.55;;;;;;;2.33;48.50;100139.66;1747310;82;21164;-63
2021/03/21 08:36:23;;;;;;;16.30;8.10;;;;;;;2.42;48.79;100142.80;1747268;81;21160;-61
2021/03/21 08:39:19;;;;;;;17.98;8.10;;;;;;;2.49;48.13;100131.23;1746854;81;21418;-63
2021/03/21 08:41:52;;;;;;;13.03;6.90;;;;;;;2.51;47.97;100124.31;1712802;83;21142;-63
2021/03/21 08:44:34;;;;;;;18.17;9.15;;;;;;;2.55;48.30;100125.71;1740765;82;21948;-62
2021/03/21 08:47:03;;;;;;;14.03;7.12;;;;;;;2.67;48.82;100127.22;1751727;81;21868;-64
2021/03/21 08:49:36;;;;;;;14.80;8.18;;;;;;;2.74;47.96;100116.63;1752163;82;21419;-63
2021/03/21 08:52:05;;;;;;;14.65;7.58;;;;;;;2.75;47.91;100115.63;1752449;81;21867;-62
2021/03/21 08:54:36;;;;;;;16.45;8.53;;;;;;;2.74;48.19;100096.34;1758630;80;21153;-63
2021/03/21 08:57:13;;;;;;;15.35;7.97;;;;;;;2.81;47.44;100110.45;1783064;80;21962;-62
2021/03/21 08:59:45;;;;;;;11.55;5.92;;;;;;;2.90;47.65;100103.75;1755133;80;21276;-63
2021/03/21 09:02:16;;;;;;;15.72;8.38;;;;;;;2.99;46.79;100107.73;1783625;80;21356;-62
2021/03/21 09:05:09;;;;;;;13.43;7.47;;;;;;;3.00;46.66;100106.72;1783444;80;21154;-63
2021/03/21 09:07:39;;;;;;;16.48;6.62;;;;;;;3.05;46.18;100104.89;1780047;80;21869;-62
2021/03/21 09:10:15;;;;;;;11.50;6.55;;;;;;;3.01;45.55;100099.45;1759659;80;21142;-66
2021/03/21 09:12:44;;;;;;;13.30;6.97;;;;;;;2.97;45.31;100085.89;1752539;81;21134;-65
2021/03/21 09:15:33;;;;;;;21.33;7.00;;;;;;;2.99;45.39;100079.31;1725620;82;21157;-66
2021/03/21 09:18:19;;;;;;;12.88;6.92;;;;;;;3.08;45.77;100090.55;1752529;82;21312;-66
2021/03/21 09:21:08;;;;;;;10.63;6.17;;;;;;;3.26;45.30;100084.28;1752578;80;21314;-64
2021/03/21 09:24:02;;;;;;;14.75;7.58;;;;;;;3.34;44.76;100064.02;1755710;80;21726;-63
2021/03/21 09:26:42;;;;;;;13.65;6.90;;;;;;;3.40;43.80;100079.12;1753031;80;21357;-63
2021/03/21 09:29:23;;;;;;;13.90;6.62;;;;;;;3.32;44.33;100079.08;1752595;82;21169;-63
2021/03/21 09:32:04;;;;;;;11.38;6.50;;;;;;;3.31;44.28;100078.73;1770621;80;21412;-67
2021/03/21 09:34:43;;;;;;;15.20;7.35;;;;;;;3.33;44.62;100046.92;1757869;80;21395;-68
2021/03/21 09:37:11;;;;;;;12.47;7.08;;;;;;;3.43;44.49;100057.65;1745943;80;21503;-64
2021/03/21 09:40:01;;;;;;;13.68;6.40;;;;;;;3.52;44.32;100051.77;1752597;82;21532;-63
2021/03/21 09:42:30;;;;;;;11.30;6.10;;;;;;;3.62;43.91;100056.56;1752665;82;21195;-63
2021/03/21 09:44:58;;;;;;;12.58;6.05;;;;;;;3.71;43.09;100059.16;1744284;81;21162;-63
2021/03/21 09:47:46;;;;;;;14.43;7.17;;;;;;;3.75;42.69;100040.71;1738939;81;21194;-64
2021/03/21 09:50:41;;;;;;;10.55;6.40;;;;;;;3.81;42.47;100031.93;1739212;81;21147;-65
2021/03/21 09:53:50;;;;;;;12.35;5.50;;;;;;;3.96;42.10;100029.48;1739196;81;21391;-65
2021/03/21 09:56:54;;;;;;;13.98;7.25;;;;;;;4.09;42.54;100023.92;1739576;82;21811;-64
2021/03/21 09:59:58;;;;;;;14.23;7.30;;;;;;;4.21;42.32;100005.98;1744196;82;21384;-62
2021/03/21 10:02:51;;;;;;;11.73;6.47;;;;;;;4.36;42.58;100011.94;1744751;82;21392;-65
2021/03/21 10:05:44;;;;;;;10.58;6.17;;;;;;;4.53;41.80;100002.47;1721956;82;21187;-63
2021/03/21 10:08:48;;;;;;;11.75;6.47;;;;;;;4.64;42.12;99985.37;1742493;82;21186;-62
2021/03/21 10:11:42;;;;;;;14.35;7.35;;;;;;;4.82;41.07;100015.56;1739170;81;21154;-62
2021/03/21 10:14:29;;;;;;;12.00;6.95;;;;;;;4.80;40.67;99987.23;1739270;82;21267;-64
2021/03/21 10:17:00;;;;;;;15.70;7.15;;;;;;;4.78;40.75;99987.91;1739268;81;21366;-65
2021/03/21 10:19:54;;;;;;;11.83;6.50;;;;;;;4.72;40.06;100000.80;1736420;82;21259;-64
2021/03/21 10:22:34;;;;;;;12.68;7.03;;;;;;;4.64;40.31;99989.44;1748395;80;21134;-66
2021/03/21 10:25:13;;;;;;;12.73;7.12;;;;;;;4.51;40.66;99980.09;1769811;80;21425;-66
2021/03/21 10:27:45;;;;;;;11.03;5.60;;;;;;;4.56;41.06;100009.79;1750009;81;21384;-65
2021/03/21 10:30:28;;;;;;;12.65;6.03;;;;;;;4.67;40.09;99973.33;1769286;81;21186;-66
2021/03/21 10:33:04;;;;;;;12.53;6.33;;;;;;;4.64;40.14;99968.25;1739129;82;21196;-62
2021/03/21 10:35:47;;;;;;;9.63;5.65;;;;;;;4.75;40.72;99965.19;1739396;82;21430;-65
2021/03/21 10:38:44;;;;;;;11.97;5.97;;;;;;;4.91;40.52;99967.03;1741995;81;21068;-64
2021/03/21 10:41:52;;;;;;;15.08;6.17;;;;;;;4.89;39.97;99959.06;1759798;81;21148;-65
2021/03/21 10:44:29;;;;;;;;;;;;;;;4.80;40.13;99953.81;1763464;80;21060;-64
2021/03/21 10:46:57;;;;;;;12.93;6.45;;;;;;;4.84;40.07;99953.81;1750032;81;20195;-65
2021/03/21 10:49:52;;;;;;;10.00;5.70;;;;;;;4.93;40.63;99959.56;1765239;81;21156;-74
2021/03/21 10:52:39;;;;;;;12.88;5.80;;;;;;;5.06;39.85;99972.09;1764549;81;21181;-63
2021/03/21 10:55:21;;;;;;;11.38;6.15;;;;;;;4.99;39.86;99940.72;1765347;80;21059;-66
2021/03/21 10:57:50;;;;;;;11.20;6.03;;;;;;;5.01;40.32;99940.55;1777962;80;21286;-68
2021/03/21 11:00:29;;;;;;;11.55;5.40;;;;;;;5.16;40.41;99936.09;1778151;80;21236;-63
2021/03/21 11:03:09;;;;;;;9.30;5.58;;;;;;;5.37;39.56;99932.82;1778057;80;21098;-63
2021/03/21 11:05:44;;;;;;;11.28;6.10;;;;;;;5.50;39.54;99936.34;1778014;80;21060;-63
2021/03/21 11:08:18;;;;;;;11.70;6.33;;;;;;;5.55;39.55;99935.30;1778292;80;21066;-65
2021/03/21 11:10:49;;;;;;;12.10;5.97;;;;;;;5.60;39.53;99912.52;1777840;80;21337;-61
2021/03/21 11:13:34;;;;;;;9.48;5.85;;;;;;;5.68;39.77;99927.41;1776878;80;21316;-64
2021/03/21 11:16:13;;;;;;;12.78;6.28;;;;;;;5.83;39.34;99902.52;1777821;80;21153;-64
2021/03/21 11:18:43;;;;;;;9.78;5.53;;;;;;;5.94;38.18;99933.95;1753343;80;21088;-62
2021/03/21 11:21:22;;;;;;;9.98;5.67;;;;;;;5.89;38.63;99895.08;1746940;82;21076;-60
2021/03/21 11:24:05;;;;;;;18.75;6.37;;;;;;;5.93;38.81;99896.41;1746852;82;21162;-63
2021/03/21 11:26:36;;;;;;;9.60;5.72;;;;;;;5.95;38.68;99902.51;1711280;83;21330;-62
2021/03/21 11:29:27;;;;;;;10.65;6.20;;;;;;;5.84;38.84;99885.70;1747135;82;21252;-62
2021/03/21 11:32:00;;;;;;;11.35;5.58;;;;;;;5.80;38.97;99878.93;1747084;82;21324;-63
2021/03/21 11:34:29;;;;;;;9.93;5.75;;;;;;;5.86;39.28;99886.40;1747024;81;21059;-63
2021/03/21 11:37:21;;;;;;;12.75;6.05;;;;;;;5.89;38.92;99895.08;1746986;81;21141;-61
2021/03/21 11:40:10;;;;;;;10.90;5.87;;;;;;;5.84;38.93;99885.70;1746920;82;21019;-62
2021/03/21 11:42:40;;;;;;;11.63;5.45;;;;;;;5.67;38.58;99865.93;1747312;81;21055;-61
2021/03/21 11:45:24;;;;;;;9.58;6.00;;;;;;;5.60;39.19;99856.80;1741167;80;21255;-62
2021/03/21 11:48:12;;;;;;;11.20;6.20;;;;;;;5.66;39.36;99860.16;1741132;82;21154;-61
2021/03/21 11:50:42;;;;;;;11.00;5.65;;;;;;;5.71;38.96;99838.73;1740896;82;21075;-60
2021/03/21 11:53:21;;;;;;;35.55;6.85;;;;;;;5.86;38.89;99843.75;1740833;82;21087;-60
2021/03/21 11:55:52;;;;;;;12.88;5.75;;;;;;;5.98;38.74;99839.61;1740879;82;21734;-62
2021/03/21 11:58:37;;;;;;;19.30;6.15;;;;;;;6.10;38.91;99833.73;1766820;80;21906;-62
2021/03/21 12:01:14;;;;;;;17.30;6.60;;;;;;;6.22;37.70;99819.52;1785467;80;21046;-60
2021/03/21 12:03:51;;;;;;;13.35;6.08;;;;;;;6.25;37.64;99834.11;1785392;80;21300;-62
2021/03/21 12:06:40;;;;;;;12.70;6.10;;;;;;;6.29;37.73;99829.99;1784822;80;21050;-61
2021/03/21 12:09:35;;;;;;;9.20;5.20;;;;;;;6.36;37.97;99815.14;1783422;80;21200;-61
2021/03/21 12:12:07;;;;;;;9.03;5.58;;;;;;;6.52;37.76;99810.92;1768824;80;21030;-62
2021/03/21 12:14:45;;;;;;;11.38;6.47;;;;;;;6.64;37.60;99810.79;1780739;80;21184;-62
2021/03/21 12:17:27;;;;;;;10.53;5.85;;;;;;;6.72;37.87;99798.12;1778282;80;21226;-62
2021/03/21 12:19:57;;;;;;;17.92;6.00;;;;;;;6.83;37.37;99797.13;1747340;82;21036;-64
2021/03/21 12:22:39;;;;;;;10.32;5.72;;;;;;;6.89;36.87;99822.77;1747049;81;21638;-60
2021/03/21 12:25:32;;;;;;;10.08;5.33;;;;;;;6.77;37.17;99799.24;1747111;82;21080;-62
2021/03/21 12:28:21;;;;;;;10.05;5.95;;;;;;;6.78;36.93;99821.87;1747046;81;21018;-63
2021/03/21 12:30:53;;;;;;;9.18;5.47;;;;;;;6.77;36.67;99787.51;1758087;80;21670;-62
2021/03/21 12:33:29;;;;;;;15.70;5.92;;;;;;;6.79;36.92;99802.63;1747224;82;21091;-63
2021/03/21 12:36:14;;;;;;;12.33;6.05;;;;;;;6.84;36.85;99778.91;1711334;83;21858;-62
2021/03/21 12:38:54;;;;;;;8.55;5.22;;;;;;;6.90;36.63;99799.94;1711221;83;21058;-60